Borkum Airport

METAR EHLE TAF EHLE
7 °C
°C
-
°C
34m
Age
08:58:47
LT
07:58
UTC
0 ft

1,000

2,000

3,000

4,000

5,000

FEW 700
BKN 1,000
BKN 1,300
SCT 1,500
MVFR
<?= Yii::t('app', 'Wind direction') ?> <?= Yii::t('app', 'of'); ?>
270°
17:25
Sunset
100%
Humidity
Wind shear
Closed/Snow
RWY visual range
RWY condition
Vert. visibility
Min. visibility
CAVOK
Trend
Correction
Special report
1020 hPa
QNH
METAR EHLE 020725Z AUTO 27014KT 8000 +DZRA FEW007 BKN010 BKN013 SCT015CB 07/07 Q1020 TEMPO 4500
Heavy drizzle rain
9 kt
9 kt
08:00
IFR
16 kt
09:00
IFR
16 kt
10:00
IFR
16 kt
11:00
IFR
16 kt
12:00
IFR
16 kt
13:00
IFR
16 kt
14:00
IFR
16 kt
8 km
Visibility
1,000 ft
Ceiling
14 kt
Wind
metar-taf.com/EDWR

Metar-Taf.com

Visual decoder

We and third parties follow your internet behavior on our website with cookies. If you continue, we assume you agree with our cookie policy.